Time;durP1;ratioP1;P1;durP2;ratioP2;P2;SDS_P1;SDS_P2;PMS_P1;PMS_P2;Temp;Humidity;BMP_temperature;BMP_pressure;BME280_temperature;BME280_humidity;BME280_pressure;Samples;Min_cycle;Max_cycle;Signal;HPM_P1;HPM_P2
2021/11/20 00:01:05;;;;;;;19.13;10.85;;;12.30;99.90;;;;;;5051127;28;20212;-73
2021/11/20 00:03:34;;;;;;;25.48;12.00;;;12.40;99.90;;;;;;5044974;28;20609;-70
2021/11/20 00:06:01;;;;;;;26.05;10.80;;;12.40;99.90;;;;;;5048109;28;20751;-73
2021/11/20 00:08:28;;;;;;;22.77;13.30;;;12.40;99.90;;;;;;5051809;28;20196;-72
2021/11/20 00:10:59;;;;;;;22.17;10.98;;;12.40;99.90;;;;;;5051488;28;20575;-73
2021/11/20 00:13:27;;;;;;;22.65;10.40;;;12.50;99.90;;;;;;5048147;28;20228;-73
2021/11/20 00:15:57;;;;;;;27.48;14.85;;;12.40;99.90;;;;;;5050970;28;20762;-73
2021/11/20 00:18:25;;;;;;;25.60;12.70;;;12.40;99.90;;;;;;5051016;28;20736;-72
2021/11/20 00:20:56;;;;;;;18.67;11.65;;;12.30;99.90;;;;;;5050731;28;20306;-71
2021/11/20 00:23:27;;;;;;;24.45;12.45;;;12.30;99.90;;;;;;5051418;28;20193;-71
2021/11/20 00:25:57;;;;;;;28.63;12.77;;;12.40;99.90;;;;;;5050214;28;20245;-72
2021/11/20 00:28:39;;;;;;;26.20;12.70;;;12.30;99.90;;;;;;5051605;28;20273;-72
2021/11/20 00:31:06;;;;;;;20.90;12.57;;;12.30;99.90;;;;;;5048604;28;20294;-72
2021/11/20 00:33:36;;;;;;;25.73;12.38;;;12.40;99.90;;;;;;5055149;28;20218;-71
2021/11/20 00:36:06;;;;;;;22.58;12.75;;;12.30;99.90;;;;;;5053073;28;20225;-73
2021/11/20 00:38:34;;;;;;;19.90;12.82;;;12.30;99.90;;;;;;5051755;28;20252;-73
2021/11/20 00:41:07;;;;;;;19.80;12.43;;;12.30;99.90;;;;;;5051545;28;20203;-72
2021/11/20 00:43:35;;;;;;;26.58;12.70;;;12.30;99.90;;;;;;5051765;28;20194;-72
2021/11/20 00:46:02;;;;;;;19.95;11.90;;;12.30;99.90;;;;;;5054695;28;20273;-72
2021/11/20 00:48:29;;;;;;;15.30;11.55;;;12.30;99.90;;;;;;5055375;28;20202;-73
2021/11/20 00:51:00;;;;;;;21.50;11.50;;;12.30;99.90;;;;;;5055804;28;20202;-72
2021/11/20 00:53:29;;;;;;;24.85;14.00;;;12.30;99.90;;;;;;5055782;28;20218;-73
2021/11/20 00:55:57;;;;;;;25.13;15.25;;;12.30;99.90;;;;;;5063312;28;20704;-72
2021/11/20 00:58:25;;;;;;;21.38;13.60;;;12.30;99.90;;;;;;5057762;28;20201;-72
2021/11/20 01:00:55;;;;;;;16.85;12.52;;;12.20;99.90;;;;;;5061193;28;20305;-73
2021/11/20 01:03:24;;;;;;;15.90;11.48;;;12.30;99.90;;;;;;5066858;28;20200;-72
2021/11/20 01:05:52;;;;;;;25.83;11.35;;;12.40;99.90;;;;;;5066742;28;20230;-73
2021/11/20 01:08:22;;;;;;;25.50;11.73;;;12.30;99.90;;;;;;5054116;28;20201;-74
2021/11/20 01:10:54;;;;;;;21.02;11.75;;;12.30;99.90;;;;;;5055006;28;20233;-72
2021/11/20 01:13:21;;;;;;;19.88;10.70;;;12.20;99.90;;;;;;5054532;28;20218;-72
2021/11/20 01:15:51;;;;;;;18.85;11.50;;;12.20;99.90;;;;;;5054233;28;20275;-72
2021/11/20 01:18:19;;;;;;;21.63;10.40;;;12.20;99.90;;;;;;5054920;28;20213;-72
2021/11/20 01:20:47;;;;;;;26.63;11.15;;;12.20;99.90;;;;;;5058486;28;20605;-70
2021/11/20 01:23:16;;;;;;;23.42;12.40;;;12.20;99.90;;;;;;5053971;28;20201;-75
2021/11/20 01:25:44;;;;;;;27.77;13.63;;;12.20;99.90;;;;;;5052000;28;20275;-71
2021/11/20 01:28:13;;;;;;;18.08;10.07;;;12.20;99.90;;;;;;5053940;28;20881;-73
2021/11/20 01:30:40;;;;;;;24.15;11.55;;;12.30;99.90;;;;;;5054252;28;20256;-72
2021/11/20 01:33:08;;;;;;;18.27;10.57;;;12.20;99.90;;;;;;5058898;28;20557;-72
2021/11/20 01:35:35;;;;;;;21.17;12.10;;;12.30;99.90;;;;;;5053792;28;20265;-73
2021/11/20 01:38:03;;;;;;;20.98;12.60;;;12.30;99.90;;;;;;5054172;28;20237;-72
2021/11/20 01:40:32;;;;;;;27.13;12.30;;;12.20;99.90;;;;;;5054389;28;20199;-72
2021/11/20 01:42:59;;;;;;;17.17;12.30;;;12.20;99.90;;;;;;5054787;28;20195;-71
2021/11/20 01:45:32;;;;;;;21.40;12.27;;;12.30;99.90;;;;;;5061793;28;20202;-73
2021/11/20 01:48:29;;;;;;;19.25;12.68;;;12.30;99.90;;;;;;5054717;28;20199;-72
2021/11/20 01:51:05;;;;;;;24.88;12.40;;;12.30;99.90;;;;;;5051455;28;20290;-73
2021/11/20 01:53:37;;;;;;;23.02;13.23;;;12.20;99.90;;;;;;5054513;28;20235;-72
2021/11/20 01:56:09;;;;;;;30.20;13.60;;;12.20;99.90;;;;;;5052394;28;20722;-72
2021/11/20 01:58:42;;;;;;;28.92;13.75;;;12.10;99.90;;;;;;5055831;28;20282;-73
2021/11/20 02:01:13;;;;;;;19.10;11.60;;;12.20;99.90;;;;;;5054300;28;20256;-71
2021/11/20 02:03:47;;;;;;;18.60;12.07;;;12.20;99.90;;;;;;5049427;28;20277;-71
2021/11/20 02:06:21;;;;;;;25.40;14.35;;;12.20;99.90;;;;;;5051764;28;20645;-72
2021/11/20 02:08:55;;;;;;;23.55;13.25;;;12.20;99.90;;;;;;5052690;28;20198;-73
2021/11/20 02:11:26;;;;;;;29.38;14.85;;;12.20;99.90;;;;;;5053268;28;20627;-72
2021/11/20 02:13:53;;;;;;;41.88;16.77;;;12.20;99.90;;;;;;5062381;28;20221;-72
2021/11/20 02:16:23;;;;;;;34.67;17.45;;;12.20;99.90;;;;;;5059923;28;20304;-72
2021/11/20 02:18:54;;;;;;;23.60;14.45;;;12.20;99.90;;;;;;5057524;28;20709;-73
2021/11/20 02:21:26;;;;;;;27.40;15.30;;;12.10;99.90;;;;;;5046774;28;20549;-72
2021/11/20 02:23:53;;;;;;;26.75;14.13;;;12.10;99.90;;;;;;5053646;28;20237;-71
2021/11/20 02:26:19;;;;;;;26.50;15.80;;;12.10;99.90;;;;;;5045634;28;20275;-72
2021/11/20 02:28:48;;;;;;;22.88;14.02;;;12.10;99.90;;;;;;5058285;28;20198;-71
2021/11/20 02:31:20;;;;;;;24.85;15.30;;;12.10;99.90;;;;;;5055490;28;20718;-72
2021/11/20 02:33:49;;;;;;;25.05;15.13;;;12.20;99.90;;;;;;5053344;28;20229;-72
2021/11/20 02:36:18;;;;;;;23.45;13.88;;;12.20;99.90;;;;;;5064116;28;20270;-71
2021/11/20 02:39:04;;;;;;;30.50;14.80;;;12.20;99.90;;;;;;5056810;28;20353;-70
2021/11/20 02:41:34;;;;;;;22.83;13.65;;;12.30;99.90;;;;;;5053390;28;20227;-71
2021/11/20 02:44:03;;;;;;;23.15;13.43;;;12.20;99.90;;;;;;5050631;28;20209;-71
2021/11/20 02:46:36;;;;;;;23.90;14.27;;;12.20;99.90;;;;;;5052416;28;20308;-71
2021/11/20 02:49:03;;;;;;;29.33;12.45;;;12.20;99.90;;;;;;5052662;28;20210;-73
2021/11/20 02:51:34;;;;;;;22.40;13.65;;;12.20;99.90;;;;;;5053138;28;20201;-73
2021/11/20 02:54:03;;;;;;;21.60;14.05;;;12.20;99.90;;;;;;5052592;28;20242;-71
2021/11/20 02:56:34;;;;;;;19.58;13.15;;;12.20;99.90;;;;;;5052022;28;20222;-71
2021/11/20 02:59:01;;;;;;;27.40;14.35;;;12.20;99.90;;;;;;5052308;28;20210;-73
2021/11/20 03:01:33;;;;;;;24.98;13.15;;;12.30;99.90;;;;;;5052289;28;20699;-70
2021/11/20 03:04:00;;;;;;;27.55;13.10;;;12.30;99.90;;;;;;5052652;28;20229;-72
2021/11/20 03:06:31;;;;;;;33.53;19.27;;;12.30;99.90;;;;;;5051881;28;20222;-71
2021/11/20 03:08:58;;;;;;;23.90;15.50;;;12.30;99.90;;;;;;5052778;28;20263;-73
2021/11/20 03:11:25;;;;;;;24.35;12.95;;;12.20;99.90;;;;;;5052693;28;20652;-74
2021/11/20 03:13:54;;;;;;;27.13;13.52;;;12.30;99.90;;;;;;5052568;28;20252;-71
2021/11/20 03:16:22;;;;;;;25.98;16.05;;;12.30;99.90;;;;;;5051930;28;20302;-73
2021/11/20 03:18:52;;;;;;;26.17;12.88;;;12.20;99.90;;;;;;5052723;28;20311;-73
2021/11/20 03:21:19;;;;;;;24.67;14.20;;;12.30;99.90;;;;;;5052870;28;20199;-71
2021/11/20 03:23:50;;;;;;;21.88;15.20;;;12.40;99.90;;;;;;5052471;28;20217;-71
2021/11/20 03:26:18;;;;;;;19.75;13.27;;;12.30;99.90;;;;;;5051340;28;20735;-72
2021/11/20 03:28:45;;;;;;;25.13;15.65;;;12.40;99.90;;;;;;5052246;28;20274;-73
2021/11/20 03:31:12;;;;;;;22.02;14.80;;;12.30;99.90;;;;;;5057293;28;20275;-72
2021/11/20 03:33:40;;;;;;;24.55;14.75;;;12.30;99.90;;;;;;5052592;28;20209;-72
2021/11/20 03:36:08;;;;;;;20.42;13.43;;;12.30;99.90;;;;;;5049673;28;20269;-71
2021/11/20 03:38:36;;;;;;;24.15;15.57;;;12.30;99.90;;;;;;5052034;28;20266;-71
2021/11/20 03:41:04;;;;;;;20.45;14.52;;;12.20;99.90;;;;;;5052122;28;20267;-73
2021/11/20 03:43:31;;;;;;;19.45;15.38;;;12.20;99.90;;;;;;5052075;28;20190;-72
2021/11/20 03:45:58;;;;;;;19.35;14.25;;;12.20;99.90;;;;;;5051032;28;20296;-71
2021/11/20 03:48:26;;;;;;;21.05;14.02;;;12.20;99.90;;;;;;5052250;28;20256;-73
2021/11/20 03:50:53;;;;;;;27.48;15.80;;;12.20;99.90;;;;;;5052155;28;20230;-73
2021/11/20 03:53:22;;;;;;;23.15;16.75;;;12.30;99.90;;;;;;5052296;28;20241;-71
2021/11/20 03:55:50;;;;;;;20.17;13.38;;;12.30;99.90;;;;;;5051131;28;20260;-72
2021/11/20 03:58:19;;;;;;;28.23;14.43;;;12.30;99.90;;;;;;5052298;28;20241;-72
2021/11/20 04:00:50;;;;;;;26.52;15.93;;;12.30;99.90;;;;;;5052147;28;20653;-71
2021/11/20 04:03:20;;;;;;;24.38;15.85;;;12.30;99.90;;;;;;5053964;28;20554;-70
2021/11/20 04:05:48;;;;;;;27.67;16.80;;;12.20;99.90;;;;;;5055438;28;20567;-72
2021/11/20 04:08:15;;;;;;;28.60;17.48;;;12.20;99.90;;;;;;5054468;28;20207;-72
2021/11/20 04:10:44;;;;;;;23.55;16.58;;;12.20;99.90;;;;;;5059339;28;20202;-73
2021/11/20 04:13:11;;;;;;;21.70;16.15;;;12.20;99.90;;;;;;5052162;28;20222;-71
2021/11/20 04:15:39;;;;;;;26.95;16.70;;;12.20;99.90;;;;;;5051605;28;20665;-74
2021/11/20 04:18:05;;;;;;;29.02;18.42;;;12.30;99.90;;;;;;5060272;28;20206;-72
2021/11/20 04:20:33;;;;;;;36.17;17.33;;;12.30;99.90;;;;;;5055912;28;20257;-71
2021/11/20 04:23:01;;;;;;;29.60;19.13;;;12.30;99.90;;;;;;5059911;28;20198;-71
2021/11/20 04:25:29;;;;;;;33.97;19.65;;;12.30;99.90;;;;;;5049761;28;20706;-72
2021/11/20 04:27:57;;;;;;;26.58;18.25;;;12.30;99.90;;;;;;5055854;28;20203;-69
2021/11/20 04:30:25;;;;;;;27.73;17.58;;;12.30;99.90;;;;;;5056698;28;20250;-71
2021/11/20 04:32:52;;;;;;;32.45;17.05;;;12.30;99.90;;;;;;5055750;28;20194;-73
2021/11/20 04:35:22;;;;;;;30.50;19.50;;;12.20;99.90;;;;;;5054500;28;20202;-71
2021/11/20 04:37:49;;;;;;;28.48;18.67;;;12.20;99.90;;;;;;5055676;28;20251;-69
2021/11/20 04:40:18;;;;;;;31.33;18.88;;;12.20;99.90;;;;;;5063853;28;20574;-71
2021/11/20 04:42:45;;;;;;;48.42;20.17;;;12.20;99.90;;;;;;5055398;28;20206;-73
2021/11/20 04:45:17;;;;;;;24.50;18.63;;;12.30;99.90;;;;;;5054827;28;20285;-72
2021/11/20 04:47:45;;;;;;;29.30;19.73;;;12.30;99.90;;;;;;5055905;28;20388;-73
2021/11/20 04:50:12;;;;;;;26.42;17.25;;;12.30;99.90;;;;;;5055192;28;20210;-72
2021/11/20 04:52:40;;;;;;;21.70;16.20;;;12.30;99.90;;;;;;5055892;28;20347;-71
2021/11/20 04:55:10;;;;;;;34.53;20.17;;;12.30;99.90;;;;;;5053143;28;20622;-73
2021/11/20 04:57:37;;;;;;;29.80;18.38;;;12.30;99.90;;;;;;5055711;28;20221;-70
2021/11/20 05:00:07;;;;;;;36.95;19.23;;;12.30;99.90;;;;;;5054899;28;20231;-73
2021/11/20 05:02:37;;;;;;;29.80;19.92;;;12.20;99.90;;;;;;5055327;28;20288;-72
2021/11/20 05:05:05;;;;;;;37.95;20.92;;;12.30;99.90;;;;;;5052722;28;20699;-72
2021/11/20 05:07:32;;;;;;;33.78;19.10;;;12.20;99.90;;;;;;5055055;28;20222;-73
2021/11/20 05:09:59;;;;;;;30.00;21.48;;;12.30;99.90;;;;;;5055291;28;20271;-71
2021/11/20 05:12:27;;;;;;;38.95;23.17;;;12.30;99.90;;;;;;5055069;28;20203;-71
2021/11/20 05:14:54;;;;;;;41.65;22.88;;;12.20;99.90;;;;;;5054487;28;20218;-70
2021/11/20 05:17:21;;;;;;;27.63;18.13;;;12.20;99.90;;;;;;5054528;28;20688;-73
2021/11/20 05:19:49;;;;;;;32.85;18.58;;;12.20;99.90;;;;;;5055124;28;20670;-72
2021/11/20 05:22:16;;;;;;;27.08;18.38;;;12.20;99.90;;;;;;5058254;28;20288;-71
2021/11/20 05:24:43;;;;;;;27.75;18.20;;;12.20;99.90;;;;;;5059478;28;20668;-72
2021/11/20 05:27:11;;;;;;;34.97;20.65;;;12.20;99.90;;;;;;5053772;28;20370;-71
2021/11/20 05:29:40;;;;;;;28.17;19.30;;;12.20;99.90;;;;;;5053824;28;20532;-71
2021/11/20 05:32:09;;;;;;;30.35;18.42;;;12.10;99.90;;;;;;5052655;28;20550;-70
2021/11/20 05:34:37;;;;;;;33.67;20.63;;;12.10;99.90;;;;;;5054793;28;20255;-71
2021/11/20 05:37:06;;;;;;;29.40;19.75;;;12.20;99.90;;;;;;5053760;28;20700;-70
2021/11/20 05:39:32;;;;;;;25.10;19.75;;;12.30;99.90;;;;;;5054615;28;20252;-70
2021/11/20 05:42:00;;;;;;;25.98;17.00;;;12.20;99.90;;;;;;5055636;28;20251;-71
2021/11/20 05:44:27;;;;;;;27.45;18.25;;;12.20;99.90;;;;;;5052776;28;20232;-71
2021/11/20 05:46:58;;;;;;;29.30;19.92;;;12.10;99.90;;;;;;5054166;28;20234;-71
2021/11/20 05:49:26;;;;;;;30.08;18.30;;;12.10;99.90;;;;;;5054524;28;20288;-70
2021/11/20 05:51:54;;;;;;;30.17;19.05;;;12.10;99.90;;;;;;5054425;28;20346;-72
2021/11/20 05:54:24;;;;;;;28.17;19.95;;;12.10;99.90;;;;;;5058465;28;20222;-73
2021/11/20 05:56:51;;;;;;;39.67;21.52;;;12.00;99.90;;;;;;5055470;28;20228;-72
2021/11/20 05:59:18;;;;;;;33.45;19.10;;;12.00;99.90;;;;;;5054171;28;20204;-73
2021/11/20 06:01:46;;;;;;;30.75;20.75;;;12.00;99.90;;;;;;5054532;28;20212;-71
2021/11/20 06:04:14;;;;;;;45.33;21.67;;;11.90;99.90;;;;;;5054045;28;20197;-72
2021/11/20 06:06:42;;;;;;;30.92;21.27;;;12.00;99.90;;;;;;5053055;28;20273;-72
2021/11/20 06:09:09;;;;;;;31.55;24.95;;;12.00;99.90;;;;;;5053953;28;20200;-71
2021/11/20 06:11:38;;;;;;;31.67;21.40;;;12.00;99.90;;;;;;5053891;28;20227;-73
2021/11/20 06:14:06;;;;;;;35.03;23.60;;;12.00;99.90;;;;;;5053775;28;20225;-72
2021/11/20 06:16:33;;;;;;;25.80;19.95;;;12.00;99.90;;;;;;5053457;28;20230;-70
2021/11/20 06:19:01;;;;;;;28.65;19.65;;;12.00;99.90;;;;;;5057450;28;20224;-72
2021/11/20 06:21:28;;;;;;;25.85;19.58;;;12.00;99.90;;;;;;5053927;28;20201;-72
2021/11/20 06:23:55;;;;;;;30.15;20.50;;;12.00;99.90;;;;;;5053127;28;20701;-70
2021/11/20 06:26:22;;;;;;;33.58;21.30;;;11.90;99.90;;;;;;5052956;28;20696;-73
2021/11/20 06:28:50;;;;;;;26.77;19.30;;;12.00;99.90;;;;;;5052765;28;20692;-72
2021/11/20 06:31:19;;;;;;;24.30;19.35;;;12.00;99.90;;;;;;5052830;28;20237;-73
2021/11/20 06:33:46;;;;;;;28.77;19.08;;;12.00;99.90;;;;;;5053530;28;20224;-72
2021/11/20 06:36:13;;;;;;;22.95;18.27;;;12.10;99.90;;;;;;5051862;28;20225;-71
2021/11/20 06:38:40;;;;;;;27.30;17.95;;;12.10;99.90;;;;;;5053589;28;20278;-72
2021/11/20 06:41:08;;;;;;;22.17;18.10;;;12.10;99.90;;;;;;5053853;28;20263;-73
2021/11/20 06:43:36;;;;;;;30.25;18.98;;;12.10;99.90;;;;;;5052690;28;20198;-73
2021/11/20 06:46:07;;;;;;;25.08;17.92;;;12.10;99.90;;;;;;5052793;28;20232;-73
2021/11/20 06:48:35;;;;;;;18.52;15.80;;;12.10;99.90;;;;;;5053340;28;20230;-71
2021/11/20 06:51:03;;;;;;;24.10;16.50;;;12.00;99.90;;;;;;5054060;28;20205;-70
2021/11/20 06:53:31;;;;;;;27.73;19.48;;;12.10;99.90;;;;;;5054837;28;20608;-70
2021/11/20 06:55:58;;;;;;;22.23;15.68;;;12.20;99.90;;;;;;5052332;28;20221;-71
2021/11/20 06:59:04;;;;;;;21.00;16.80;;;12.10;99.90;;;;;;5053329;28;20258;-72
2021/11/20 07:01:34;;;;;;;24.52;17.60;;;12.10;99.90;;;;;;5061283;28;20251;-74
2021/11/20 07:04:03;;;;;;;19.90;15.98;;;12.20;99.90;;;;;;5053416;28;20286;-76
2021/11/20 07:06:35;;;;;;;24.83;16.55;;;12.20;99.90;;;;;;5052509;28;20284;-73
2021/11/20 07:09:03;;;;;;;21.35;15.95;;;12.20;99.90;;;;;;5054107;28;20241;-74
2021/11/20 07:11:30;;;;;;;28.60;17.13;;;12.20;99.90;;;;;;5065804;28;20252;-73
2021/11/20 07:13:57;;;;;;;30.20;16.35;;;12.20;99.90;;;;;;5062391;28;20227;-73
2021/11/20 07:16:27;;;;;;;27.73;17.20;;;12.20;99.90;;;;;;5057068;28;20307;-74
2021/11/20 07:19:02;;;;;;;19.23;17.08;;;12.20;99.90;;;;;;5050362;28;20695;-72
2021/11/20 07:21:30;;;;;;;21.50;17.08;;;12.10;99.90;;;;;;5050935;28;20204;-72
2021/11/20 07:24:02;;;;;;;20.65;15.68;;;12.10;99.90;;;;;;5043918;28;20256;-71
2021/11/20 07:26:29;;;;;;;19.15;15.00;;;12.10;99.90;;;;;;5036434;28;20226;-72
2021/11/20 07:28:57;;;;;;;20.30;15.88;;;12.10;99.90;;;;;;5036107;28;20297;-71
2021/11/20 07:31:24;;;;;;;26.10;16.48;;;12.00;99.90;;;;;;5044924;28;20224;-71
2021/11/20 07:33:52;;;;;;;24.00;19.35;;;12.10;99.90;;;;;;5040339;28;20581;-73
2021/11/20 07:36:20;;;;;;;20.83;14.90;;;12.10;99.90;;;;;;5048959;28;20226;-72
2021/11/20 07:38:49;;;;;;;18.90;14.88;;;12.20;99.90;;;;;;5046830;28;20203;-71
2021/11/20 07:41:16;;;;;;;27.52;16.15;;;12.20;99.90;;;;;;5051394;28;20213;-71
2021/11/20 07:43:43;;;;;;;23.98;16.42;;;12.20;99.90;;;;;;5051399;28;20560;-71
2021/11/20 07:46:13;;;;;;;19.85;15.27;;;12.30;99.90;;;;;;5046411;28;20222;-73
2021/11/20 07:48:41;;;;;;;26.60;16.83;;;12.20;99.90;;;;;;5051107;28;20281;-70
2021/11/20 07:51:09;;;;;;;21.48;15.70;;;12.40;99.90;;;;;;5042869;28;20246;-70
2021/11/20 07:53:38;;;;;;;21.50;15.48;;;12.40;99.90;;;;;;5045790;28;20204;-71
2021/11/20 07:56:06;;;;;;;18.65;15.07;;;12.40;99.90;;;;;;5040518;28;20697;-71
2021/11/20 07:58:34;;;;;;;19.33;17.02;;;12.30;99.90;;;;;;5044824;28;20268;-70
2021/11/20 08:01:02;;;;;;;21.38;16.45;;;12.20;99.90;;;;;;5050871;28;20216;-71
2021/11/20 08:03:29;;;;;;;22.13;16.33;;;12.30;99.90;;;;;;5038243;28;20235;-71
2021/11/20 08:05:56;;;;;;;17.23;15.43;;;12.20;99.90;;;;;;5041723;28;20260;-70
2021/11/20 08:08:24;;;;;;;17.38;15.55;;;12.10;99.90;;;;;;5051632;28;20635;-72
2021/11/20 08:10:52;;;;;;;21.63;15.68;;;12.10;99.90;;;;;;5050667;28;20197;-71
2021/11/20 08:13:20;;;;;;;17.63;15.55;;;12.20;99.90;;;;;;5050269;28;20717;-71
2021/11/20 08:15:48;;;;;;;22.23;16.85;;;12.10;99.90;;;;;;5051022;28;20313;-71
2021/11/20 08:18:15;;;;;;;20.90;16.92;;;12.10;99.90;;;;;;5050735;28;20247;-73
2021/11/20 08:20:45;;;;;;;20.98;17.55;;;12.20;99.90;;;;;;5047314;28;20728;-71
2021/11/20 08:23:13;;;;;;;18.50;14.05;;;12.20;99.90;;;;;;5052189;28;20202;-72
2021/11/20 08:25:42;;;;;;;22.15;18.08;;;12.20;99.90;;;;;;5046476;28;20258;-69
2021/11/20 08:28:13;;;;;;;22.00;16.42;;;12.20;99.90;;;;;;5050459;28;20250;-71
2021/11/20 08:30:41;;;;;;;24.63;16.70;;;12.30;99.90;;;;;;5045033;28;20210;-71
2021/11/20 08:33:08;;;;;;;23.27;17.02;;;12.20;99.90;;;;;;5050163;28;20275;-72
2021/11/20 08:35:37;;;;;;;24.80;18.05;;;12.20;99.90;;;;;;5045711;28;20692;-71
2021/11/20 08:38:06;;;;;;;25.27;18.02;;;12.20;99.90;;;;;;5051060;28;20669;-69
2021/11/20 08:40:35;;;;;;;22.13;18.08;;;12.20;99.90;;;;;;5051816;28;20264;-70
2021/11/20 08:43:03;;;;;;;20.15;17.02;;;12.20;99.90;;;;;;5046563;28;20198;-72
2021/11/20 08:45:35;;;;;;;24.00;16.42;;;12.20;99.90;;;;;;5050107;28;20195;-71
2021/11/20 08:48:03;;;;;;;21.80;18.50;;;12.30;99.90;;;;;;5034913;28;20212;-71
2021/11/20 08:50:33;;;;;;;21.98;18.40;;;12.30;99.90;;;;;;5049303;28;20230;-72
2021/11/20 08:53:00;;;;;;;22.17;18.65;;;12.30;99.90;;;;;;5044449;28;20213;-71
2021/11/20 08:55:28;;;;;;;20.23;17.15;;;12.30;99.90;;;;;;5047033;28;20222;-71
2021/11/20 08:57:55;;;;;;;19.85;17.52;;;12.30;99.90;;;;;;5048071;28;20198;-71
2021/11/20 09:00:27;;;;;;;30.00;19.70;;;12.30;99.90;;;;;;5051345;28;20205;-72
2021/11/20 09:02:59;;;;;;;26.75;19.50;;;12.30;99.90;;;;;;5051352;28;20218;-71
2021/11/20 09:05:31;;;;;;;21.50;18.30;;;12.30;99.90;;;;;;5049562;28;20197;-71
2021/11/20 09:08:04;;;;;;;27.23;20.38;;;12.30;99.90;;;;;;5051015;28;20206;-72
2021/11/20 09:10:37;;;;;;;26.27;19.88;;;12.40;99.90;;;;;;5054973;28;20229;-72
2021/11/20 09:13:16;;;;;;;38.10;21.05;;;12.40;99.90;;;;;;5054955;28;20198;-72
2021/11/20 09:15:47;;;;;;;25.90;21.20;;;12.40;99.90;;;;;;5051144;28;20284;-72
2021/11/20 09:18:16;;;;;;;30.88;21.50;;;12.40;99.90;;;;;;5048313;28;20206;-71
2021/11/20 09:20:44;;;;;;;29.17;21.35;;;12.40;99.90;;;;;;5053178;28;20645;-71
2021/11/20 09:23:11;;;;;;;28.38;21.38;;;12.40;99.90;;;;;;5054164;28;20214;-71
2021/11/20 09:25:38;;;;;;;27.35;21.00;;;12.40;99.90;;;;;;5053422;28;20324;-72
2021/11/20 09:28:09;;;;;;;29.70;22.67;;;12.30;99.90;;;;;;5054040;28;20242;-71
2021/11/20 09:30:41;;;;;;;25.05;21.52;;;12.40;99.90;;;;;;5054709;28;20201;-71
2021/11/20 09:33:08;;;;;;;26.85;22.05;;;12.40;99.90;;;;;;5051548;28;20586;-70
2021/11/20 09:35:39;;;;;;;29.73;21.25;;;12.30;99.90;;;;;;5050141;28;20231;-73
2021/11/20 09:38:07;;;;;;;28.05;21.27;;;12.40;99.90;;;;;;5051752;28;20242;-71
2021/11/20 09:40:37;;;;;;;23.95;20.05;;;12.40;99.90;;;;;;5053424;28;20202;-72
2021/11/20 09:43:09;;;;;;;29.30;23.55;;;12.40;99.90;;;;;;5050520;28;20566;-71
2021/11/20 09:45:39;;;;;;;30.55;23.35;;;12.50;99.90;;;;;;5052903;28;20222;-72
2021/11/20 09:48:11;;;;;;;31.42;24.67;;;12.40;99.90;;;;;;5046542;28;20207;-72
2021/11/20 09:50:44;;;;;;;26.63;22.25;;;12.40;99.90;;;;;;5042058;28;20207;-70
2021/11/20 09:53:12;;;;;;;26.60;22.02;;;12.40;99.90;;;;;;5036987;28;20214;-69
2021/11/20 09:55:42;;;;;;;29.50;22.60;;;12.40;99.90;;;;;;5045138;28;20230;-71
2021/11/20 09:58:12;;;;;;;28.77;22.98;;;12.50;99.90;;;;;;5052413;28;20226;-71
2021/11/20 10:01:10;;;;;;;27.50;21.25;;;12.50;99.90;;;;;;5047750;28;20901;-71
2021/11/20 10:03:44;;;;;;;27.02;22.20;;;12.50;99.90;;;;;;5041129;28;20245;-71
2021/11/20 10:06:22;;;;;;;29.20;20.45;;;12.50;99.90;;;;;;5052679;28;20261;-75
2021/11/20 10:08:50;;;;;;;26.17;21.83;;;12.50;99.90;;;;;;5048480;28;20233;-72
2021/11/20 10:11:35;;;;;;;27.02;20.05;;;12.40;99.90;;;;;;5053768;28;20199;-71
2021/11/20 10:14:09;;;;;;;23.92;19.92;;;12.50;99.90;;;;;;5042714;28;20203;-71
2021/11/20 10:16:44;;;;;;;26.05;21.35;;;12.50;99.90;;;;;;5053762;28;20268;-71
2021/11/20 10:19:21;;;;;;;26.90;19.45;;;12.50;99.90;;;;;;5047986;28;20654;-71
2021/11/20 10:22:08;;;;;;;28.55;22.08;;;12.40;99.90;;;;;;5044286;28;20209;-72
2021/11/20 10:25:11;;;;;;;23.83;19.10;;;12.50;99.90;;;;;;5046425;28;20201;-71
2021/11/20 10:27:52;;;;;;;25.33;20.02;;;12.40;99.90;;;;;;5046977;28;20225;-73
2021/11/20 10:30:31;;;;;;;24.88;19.63;;;12.40;99.90;;;;;;5043770;28;20210;-71
2021/11/20 10:33:16;;;;;;;23.55;19.45;;;12.40;99.90;;;;;;5043772;28;20225;-72
2021/11/20 10:35:48;;;;;;;25.05;18.95;;;12.40;99.90;;;;;;5047901;28;20233;-74
2021/11/20 10:38:24;;;;;;;22.77;19.60;;;12.50;99.90;;;;;;5052010;28;20203;-71
2021/11/20 10:40:56;;;;;;;25.98;18.73;;;12.50;99.90;;;;;;5053009;28;20240;-72
2021/11/20 10:43:27;;;;;;;20.92;16.95;;;12.50;99.90;;;;;;5051054;28;20195;-72
2021/11/20 10:46:11;;;;;;;25.88;18.45;;;12.60;99.90;;;;;;5050894;28;20293;-71
2021/11/20 10:48:41;;;;;;;22.05;16.45;;;12.60;99.90;;;;;;5043288;28;20661;-72
2021/11/20 10:51:47;;;;;;;21.92;17.38;;;12.60;99.90;;;;;;5052737;28;20202;-71
2021/11/20 10:54:50;;;;;;;18.88;14.98;;;12.60;99.90;;;;;;5036761;28;20285;-72
2021/11/20 10:57:43;;;;;;;23.88;17.42;;;12.60;99.90;;;;;;5052054;28;20241;-73
2021/11/20 11:00:32;;;;;;;20.90;16.42;;;12.60;99.90;;;;;;5049631;28;20287;-73
2021/11/20 11:03:34;;;;;;;22.30;16.77;;;12.50;99.90;;;;;;5041972;28;20678;-72
2021/11/20 11:06:34;;;;;;;19.33;16.88;;;12.50;99.90;;;;;;4986283;28;20229;-74
2021/11/20 11:09:19;;;;;;;25.58;17.45;;;12.50;99.90;;;;;;5049164;28;20210;-72
2021/11/20 11:11:52;;;;;;;22.67;17.55;;;12.50;99.90;;;;;;5052754;28;20209;-73
2021/11/20 11:14:55;;;;;;;23.20;18.45;;;12.60;99.90;;;;;;5051128;28;20206;-72
2021/11/20 11:17:36;;;;;;;23.42;18.10;;;12.50;99.90;;;;;;5032768;28;20230;-72
2021/11/20 11:20:10;;;;;;;25.48;17.92;;;12.40;99.90;;;;;;5049523;28;20240;-73
2021/11/20 11:22:41;;;;;;;21.80;17.95;;;12.30;99.90;;;;;;5050934;28;20618;-72
2021/11/20 11:25:21;;;;;;;24.52;18.10;;;12.30;99.90;;;;;;5046979;28;20213;-72
2021/11/20 11:28:17;;;;;;;22.27;18.38;;;12.30;99.90;;;;;;5052437;28;20205;-73
2021/11/20 11:30:51;;;;;;;24.98;18.80;;;12.20;99.90;;;;;;5046169;28;20650;-73
2021/11/20 11:33:19;;;;;;;26.42;19.48;;;12.20;99.90;;;;;;5050471;28;20246;-72
2021/11/20 11:35:56;;;;;;;23.42;17.60;;;12.20;99.90;;;;;;5049826;28;20225;-72
2021/11/20 11:38:57;;;;;;;26.90;21.05;;;12.20;99.90;;;;;;5049931;28;20223;-72
2021/11/20 11:41:28;;;;;;;22.13;17.95;;;12.20;99.90;;;;;;5046782;28;20688;-71
2021/11/20 11:44:09;;;;;;;24.88;20.92;;;12.20;99.90;;;;;;5051839;28;20647;-71
2021/11/20 11:46:52;;;;;;;24.80;20.35;;;12.20;99.90;;;;;;5050473;28;20221;-71
2021/11/20 11:49:45;;;;;;;26.05;20.02;;;12.10;99.90;;;;;;5048609;28;20198;-72
2021/11/20 11:52:45;;;;;;;24.13;19.52;;;12.10;99.90;;;;;;5045439;28;20213;-72
2021/11/20 11:55:21;;;;;;;27.48;20.73;;;12.10;99.90;;;;;;5047832;28;20221;-72
2021/11/20 11:58:03;;;;;;;23.17;18.60;;;12.10;99.90;;;;;;5048165;28;20201;-71
2021/11/20 12:00:36;;;;;;;23.63;18.88;;;12.10;99.90;;;;;;5043065;28;20197;-72
2021/11/20 12:03:06;;;;;;;26.98;21.25;;;12.10;99.90;;;;;;5049140;28;20205;-72
2021/11/20 12:05:39;;;;;;;25.75;20.10;;;12.10;99.90;;;;;;5050197;28;20202;-72
2021/11/20 12:08:24;;;;;;;24.05;19.52;;;12.10;99.90;;;;;;5045875;28;20205;-72
2021/11/20 12:10:57;;;;;;;26.75;20.45;;;12.10;99.90;;;;;;5042810;28;20641;-72
2021/11/20 12:13:31;;;;;;;23.42;20.08;;;12.20;99.90;;;;;;5039812;28;20316;-71
2021/11/20 12:16:12;;;;;;;27.88;19.48;;;12.20;99.90;;;;;;5049896;28;20656;-73
2021/11/20 12:18:54;;;;;;;27.73;21.85;;;12.20;99.90;;;;;;5051195;28;20238;-73
2021/11/20 12:21:42;;;;;;;23.55;19.60;;;12.10;99.90;;;;;;5049478;28;20200;-72
2021/11/20 12:24:17;;;;;;;25.08;20.83;;;12.10;99.90;;;;;;5051885;28;20205;-73
2021/11/20 12:27:01;;;;;;;25.92;20.38;;;12.10;99.90;;;;;;5050673;28;20312;-72
2021/11/20 12:30:05;;;;;;;29.00;21.80;;;12.10;99.90;;;;;;5047531;28;20255;-72
2021/11/20 12:33:05;;;;;;;27.15;21.38;;;12.00;99.90;;;;;;5045342;28;20541;-72
2021/11/20 12:36:00;;;;;;;28.02;19.38;;;12.00;99.90;;;;;;5043894;28;20232;-72
2021/11/20 12:38:46;;;;;;;28.58;20.20;;;12.00;99.90;;;;;;5047856;28;20308;-72
2021/11/20 12:41:28;;;;;;;23.48;18.48;;;12.00;99.90;;;;;;5049301;28;20194;-72
2021/11/20 12:44:21;;;;;;;25.02;19.83;;;12.10;99.90;;;;;;5055282;28;20321;-73
2021/11/20 12:47:11;;;;;;;25.73;19.73;;;11.90;99.90;;;;;;5054422;28;20667;-73
2021/11/20 12:49:44;;;;;;;33.13;24.23;;;11.90;99.90;;;;;;5050391;28;20200;-72
2021/11/20 12:52:23;;;;;;;33.42;22.00;;;11.90;99.90;;;;;;5049834;28;20212;-72